Time,TemperatureF,DewpointF,PressureIn,WindDirection,WindDirectionDegrees,WindSpeedMPH,WindSpeedGustMPH,Humidity,HourlyPrecipIn,Conditions,Clouds,dailyrainin,SoftwareType,DateUTC
2013-07-12 00:00:00,67.0,30.9,28.38,NNW,337,6.0,13.0,26,0.00,,,0.00,Weather View 32 v70,2013-07-12 07:00:00,
2013-07-12 00:05:00,67.0,30.9,28.38,North,360,5.0,12.0,26,0.00,,,0.00,Weather View 32 v70,2013-07-12 07:05:00,
2013-07-12 00:10:00,67.0,31.8,28.37,NW,315,5.0,12.0,27,0.00,,,0.00,Weather View 32 v70,2013-07-12 07:10:00,
2013-07-12 00:15:00,67.0,33.6,28.37,North,360,3.0,12.0,29,0.00,,,0.00,Weather View 32 v70,2013-07-12 07:15:00,
2013-07-12 00:20:00,67.0,32.7,28.37,North,360,9.0,12.0,28,0.00,,,0.00,Weather View 32 v70,2013-07-12 07:20:00,
2013-07-12 00:25:00,67.0,32.7,28.37,North,360,8.0,12.0,28,0.00,,,0.00,Weather View 32 v70,2013-07-12 07:25:00,
2013-07-12 00:30:00,67.0,33.6,28.37,North,360,12.0,12.0,29,0.00,,,0.00,Weather View 32 v70,2013-07-12 07:30:00,
2013-07-12 00:35:00,66.0,34.4,28.37,NE,45,10.0,14.0,31,0.00,,,0.00,Weather View 32 v70,2013-07-12 07:35:00,
2013-07-12 00:40:00,66.0,36.0,28.38,North,360,6.0,14.0,33,0.00,,,0.00,Weather View 32 v70,2013-07-12 07:40:00,
2013-07-12 00:45:00,66.0,34.4,28.38,NW,315,7.0,14.0,31,0.00,,,0.00,Weather View 32 v70,2013-07-12 07:45:00,
2013-07-12 00:50:00,66.0,34.4,28.38,North,360,5.0,14.0,31,0.00,,,0.00,Weather View 32 v70,2013-07-12 07:50:00,
2013-07-12 00:55:00,66.0,34.4,28.38,North,360,7.0,14.0,31,0.00,,,0.00,Weather View 32 v70,2013-07-12 07:55:00,
2013-07-12 01:00:00,66.0,33.6,28.38,WNW,292,5.0,14.0,30,0.00,,,0.00,Weather View 32 v70,2013-07-12 08:00:00,
2013-07-12 01:06:00,67.0,34.5,28.37,North,360,8.0,14.0,30,0.00,,,0.00,Weather View 32 v70,2013-07-12 08:06:00,
2013-07-12 01:11:00,67.0,33.6,28.37,North,360,7.0,14.0,29,0.00,,,0.00,Weather View 32 v70,2013-07-12 08:11:00,
2013-07-12 01:16:00,67.0,32.7,28.37,NNE,22,11.0,14.0,28,0.00,,,0.00,Weather View 32 v70,2013-07-12 08:16:00,
2013-07-12 01:21:00,67.0,33.6,28.37,North,360,10.0,14.0,29,0.00,,,0.00,Weather View 32 v70,2013-07-12 08:21:00,
2013-07-12 01:26:00,67.0,34.5,28.38,NNE,22,6.0,14.0,30,0.00,,,0.00,Weather View 32 v70,2013-07-12 08:26:00,
2013-07-12 01:31:00,66.0,34.4,28.38,North,360,7.0,14.0,31,0.00,,,0.00,Weather View 32 v70,2013-07-12 08:31:00,
2013-07-12 01:37:00,66.0,33.6,28.38,NW,315,9.0,15.0,30,0.00,,,0.00,Weather View 32 v70,2013-07-12 08:37:00,
2013-07-12 01:42:00,66.0,32.8,28.38,NW,315,14.0,16.0,29,0.00,,,0.00,Weather View 32 v70,2013-07-12 08:42:00,
2013-07-12 01:47:00,67.0,34.5,28.38,NW,315,9.0,17.0,30,0.00,,,0.00,Weather View 32 v70,2013-07-12 08:47:00,
2013-07-12 01:52:00,67.0,34.5,28.38,North,360,2.0,17.0,30,0.00,,,0.00,Weather View 32 v70,2013-07-12 08:52:00,
2013-07-12 01:58:00,66.0,33.6,28.38,NW,315,7.0,17.0,30,0.00,,,0.00,Weather View 32 v70,2013-07-12 08:58:00,
2013-07-12 02:03:00,66.0,33.6,28.38,NW,315,3.0,17.0,30,0.00,,,0.00,Weather View 32 v70,2013-07-12 09:03:00,
2013-07-12 02:08:00,66.0,33.6,28.39,NW,315,3.0,17.0,30,0.00,,,0.00,Weather View 32 v70,2013-07-12 09:08:00,
2013-07-12 02:13:00,66.0,34.4,28.39,NW,315,6.0,17.0,31,0.00,,,0.00,Weather View 32 v70,2013-07-12 09:13:00,
2013-07-12 02:18:00,66.0,34.4,28.39,NW,315,7.0,17.0,31,0.00,,,0.00,Weather View 32 v70,2013-07-12 09:18:00,
2013-07-12 02:23:00,66.0,34.4,28.39,West,270,6.0,17.0,31,0.00,,,0.00,Weather View 32 v70,2013-07-12 09:23:00,
2013-07-12 02:29:00,66.0,35.2,28.39,NW,315,7.0,17.0,32,0.00,,,0.00,Weather View 32 v70,2013-07-12 09:29:00,
2013-07-12 02:34:00,66.0,35.2,28.39,North,360,6.0,17.0,32,0.00,,,0.00,Weather View 32 v70,2013-07-12 09:34:00,
2013-07-12 02:39:00,66.0,35.2,28.39,NNW,337,7.0,17.0,32,0.00,,,0.00,Weather View 32 v70,2013-07-12 09:39:00,
2013-07-12 02:44:00,65.0,34.4,28.39,North,360,7.0,16.0,32,0.00,,,0.00,Weather View 32 v70,2013-07-12 09:44:00,
2013-07-12 02:49:00,65.0,34.4,28.39,WNW,292,9.0,16.0,32,0.00,,,0.00,Weather View 32 v70,2013-07-12 09:49:00,
2013-07-12 02:54:00,65.0,34.4,28.39,NNW,337,3.0,16.0,32,0.00,,,0.00,Weather View 32 v70,2013-07-12 09:54:00,
2013-07-12 02:59:00,65.0,34.4,28.40,North,360,8.0,16.0,32,0.00,,,0.00,Weather View 32 v70,2013-07-12 09:59:00,
2013-07-12 03:04:00,65.0,34.4,28.40,NW,315,7.0,16.0,32,0.00,,,0.00,Weather View 32 v70,2013-07-12 10:04:00,
2013-07-12 03:05:00,65.0,34.4,28.40,NNW,337,8.0,16.0,32,0.00,,,0.00,Weather View 32 v70,2013-07-12 10:05:00,
2013-07-12 03:19:00,65.0,35.9,28.40,NW,315,6.0,15.0,34,0.00,,,0.00,Weather View 32 v70,2013-07-12 10:19:00,
2013-07-12 03:24:00,65.0,35.9,28.40,NW,315,7.0,12.0,34,0.00,,,0.00,Weather View 32 v70,2013-07-12 10:24:00,
2013-07-12 03:29:00,65.0,36.6,28.40,NW,315,5.0,12.0,35,0.00,,,0.00,Weather View 32 v70,2013-07-12 10:29:00,
2013-07-12 03:35:00,65.0,35.9,28.40,NW,315,9.0,12.0,34,0.00,,,0.00,Weather View 32 v70,2013-07-12 10:35:00,
2013-07-12 03:40:00,65.0,36.6,28.40,WNW,292,5.0,12.0,35,0.00,,,0.00,Weather View 32 v70,2013-07-12 10:40:00,
2013-07-12 03:45:00,65.0,36.6,28.40,NW,315,4.0,12.0,35,0.00,,,0.00,Weather View 32 v70,2013-07-12 10:45:00,
2013-07-12 03:50:00,65.0,37.3,28.40,WNW,292,5.0,12.0,36,0.00,,,0.00,Weather View 32 v70,2013-07-12 10:50:00,
2013-07-12 03:55:00,64.0,36.4,28.40,WNW,292,4.0,12.0,36,0.00,,,0.00,Weather View 32 v70,2013-07-12 10:55:00,
2013-07-12 04:00:00,64.0,36.4,28.40,WNW,292,4.0,12.0,36,0.00,,,0.00,Weather View 32 v70,2013-07-12 11:00:00,
2013-07-12 04:05:00,64.0,35.7,28.40,NW,315,2.0,12.0,35,0.00,,,0.00,Weather View 32 v70,2013-07-12 11:05:00,
2013-07-12 04:10:00,64.0,35.7,28.41,NW,315,7.0,12.0,35,0.00,,,0.00,Weather View 32 v70,2013-07-12 11:10:00,
2013-07-12 04:15:00,64.0,35.7,28.41,NW,315,7.0,12.0,35,0.00,,,0.00,Weather View 32 v70,2013-07-12 11:15:00,
2013-07-12 04:20:00,64.0,35.7,28.41,NW,315,6.0,12.0,35,0.00,,,0.00,Weather View 32 v70,2013-07-12 11:20:00,
2013-07-12 04:25:00,64.0,37.1,28.41,WNW,292,7.0,12.0,37,0.00,,,0.00,Weather View 32 v70,2013-07-12 11:25:00,
2013-07-12 04:30:00,64.0,36.4,28.41,West,270,7.0,12.0,36,0.00,,,0.00,Weather View 32 v70,2013-07-12 11:30:00,
2013-07-12 04:35:00,63.0,37.6,28.41,West,270,7.0,12.0,39,0.00,,,0.00,Weather View 32 v70,2013-07-12 11:35:00,
2013-07-12 04:40:00,63.0,38.9,28.42,NW,315,9.0,12.0,41,0.00,,,0.00,Weather View 32 v70,2013-07-12 11:40:00,
2013-07-12 04:45:00,63.0,40.1,28.42,WNW,292,6.0,12.0,43,0.00,,,0.00,Weather View 32 v70,2013-07-12 11:45:00,
2013-07-12 04:50:00,62.0,39.2,28.42,WNW,292,7.0,12.0,43,0.00,,,0.00,Weather View 32 v70,2013-07-12 11:50:00,
2013-07-12 04:55:00,62.0,39.2,28.42,WNW,292,6.0,12.0,43,0.00,,,0.00,Weather View 32 v70,2013-07-12 11:55:00,
2013-07-12 05:00:00,62.0,37.3,28.42,WNW,292,7.0,12.0,40,0.00,,,0.00,Weather View 32 v70,2013-07-12 12:00:00,
2013-07-12 05:05:00,62.0,39.2,28.42,WNW,292,6.0,12.0,43,0.00,,,0.00,Weather View 32 v70,2013-07-12 12:05:00,
2013-07-12 05:10:00,62.0,40.9,28.42,West,270,7.0,12.0,46,0.00,,,0.00,Weather View 32 v70,2013-07-12 12:10:00,
2013-07-12 05:15:00,61.0,39.5,28.42,West,270,6.0,12.0,45,0.00,,,0.00,Weather View 32 v70,2013-07-12 12:15:00,
2013-07-12 05:20:00,61.0,40.6,28.42,West,270,6.0,12.0,47,0.00,,,0.00,Weather View 32 v70,2013-07-12 12:20:00,
2013-07-12 05:25:00,61.0,41.1,28.42,SW,225,1.0,12.0,48,0.00,,,0.00,Weather View 32 v70,2013-07-12 12:25:00,
2013-07-12 05:30:00,60.0,40.2,28.42,West,270,2.0,12.0,48,0.00,,,0.00,Weather View 32 v70,2013-07-12 12:30:00,
2013-07-12 05:36:00,60.0,39.7,28.42,West,270,6.0,12.0,47,0.00,,,0.00,Weather View 32 v70,2013-07-12 12:36:00,
2013-07-12 05:41:00,60.0,39.7,28.42,WNW,292,7.0,12.0,47,0.00,,,0.00,Weather View 32 v70,2013-07-12 12:41:00,
2013-07-12 05:46:00,60.0,39.1,28.43,West,270,7.0,10.0,46,0.00,,,0.00,Weather View 32 v70,2013-07-12 12:46:00,
2013-07-12 05:52:00,60.0,39.1,28.43,West,270,6.0,10.0,46,0.00,,,0.00,Weather View 32 v70,2013-07-12 12:52:00,
2013-07-12 05:57:00,60.0,39.1,28.42,West,270,7.0,10.0,46,0.00,,,0.00,Weather View 32 v70,2013-07-12 12:57:00,
2013-07-12 06:02:00,60.0,39.1,28.42,NW,315,5.0,10.0,46,0.00,,,0.00,Weather View 32 v70,2013-07-12 13:02:00,
2013-07-12 06:07:00,60.0,38.5,28.43,NW,315,6.0,10.0,45,0.00,,,0.00,Weather View 32 v70,2013-07-12 13:07:00,
2013-07-12 06:12:00,60.0,39.1,28.43,NW,315,0.0,10.0,46,0.00,,,0.00,Weather View 32 v70,2013-07-12 13:12:00,
2013-07-12 06:14:00,60.0,38.5,28.43,NW,315,2.0,10.0,45,0.00,,,0.00,Weather View 32 v70,2013-07-12 13:14:00,
2013-07-12 06:19:00,61.0,39.5,28.43,West,270,4.0,10.0,45,0.00,,,0.00,Weather View 32 v70,2013-07-12 13:19:00,
2013-07-12 06:24:00,61.0,38.9,28.43,WNW,292,5.0,10.0,44,0.00,,,0.00,Weather View 32 v70,2013-07-12 13:24:00,
2013-07-12 06:30:00,61.0,38.9,28.44,WNW,292,3.0,10.0,44,0.00,,,0.00,Weather View 32 v70,2013-07-12 13:30:00,
2013-07-12 06:35:00,62.0,39.2,28.44,NW,315,2.0,10.0,43,0.00,,,0.00,Weather View 32 v70,2013-07-12 13:35:00,
2013-07-12 06:40:00,62.0,39.2,28.44,NE,45,2.0,10.0,43,0.00,,,0.00,Weather View 32 v70,2013-07-12 13:40:00,
2013-07-12 06:45:00,62.0,38.6,28.44,NW,315,1.0,9.0,42,0.00,,,0.00,Weather View 32 v70,2013-07-12 13:45:00,
2013-07-12 06:50:00,63.0,39.5,28.44,NW,315,1.0,9.0,42,0.00,,,0.00,Weather View 32 v70,2013-07-12 13:50:00,
2013-07-12 06:55:00,63.0,38.9,28.44,North,360,3.0,9.0,41,0.00,,,0.00,Weather View 32 v70,2013-07-12 13:55:00,
2013-07-12 07:00:00,64.0,37.8,28.44,NNW,337,4.0,9.0,38,0.00,,,0.00,Weather View 32 v70,2013-07-12 14:00:00,
2013-07-12 07:05:00,64.0,37.1,28.44,NW,315,9.0,12.0,37,0.00,,,0.00,Weather View 32 v70,2013-07-12 14:05:00,
2013-07-12 07:10:00,64.0,37.8,28.44,WNW,292,6.0,12.0,38,0.00,,,0.00,Weather View 32 v70,2013-07-12 14:10:00,
2013-07-12 07:15:00,64.0,37.1,28.44,NW,315,7.0,12.0,37,0.00,,,0.00,Weather View 32 v70,2013-07-12 14:15:00,
2013-07-12 07:20:00,64.0,37.1,28.44,NW,315,6.0,12.0,37,0.00,,,0.00,Weather View 32 v70,2013-07-12 14:20:00,
2013-07-12 07:25:00,65.0,38.0,28.44,NW,315,7.0,12.0,37,0.00,,,0.00,Weather View 32 v70,2013-07-12 14:25:00,
2013-07-12 07:30:00,65.0,37.3,28.44,NNW,337,7.0,12.0,36,0.00,,,0.00,Weather View 32 v70,2013-07-12 14:30:00,
2013-07-12 07:35:00,66.0,36.8,28.44,North,360,7.0,12.0,34,0.00,,,0.00,Weather View 32 v70,2013-07-12 14:35:00,
2013-07-12 07:40:00,66.0,36.0,28.43,NW,315,7.0,12.0,33,0.00,,,0.00,Weather View 32 v70,2013-07-12 14:40:00,
2013-07-12 07:45:00,67.0,35.3,28.43,North,360,7.0,12.0,31,0.00,,,0.00,Weather View 32 v70,2013-07-12 14:45:00,
2013-07-12 07:50:00,68.0,35.3,28.43,North,360,9.0,12.0,30,0.00,,,0.00,Weather View 32 v70,2013-07-12 14:50:00,
2013-07-12 07:55:00,69.0,35.3,28.43,North,360,10.0,12.0,29,0.00,,,0.00,Weather View 32 v70,2013-07-12 14:55:00,
2013-07-12 08:00:00,69.0,34.5,28.42,North,360,6.0,12.0,28,0.00,,,0.00,Weather View 32 v70,2013-07-12 15:00:00,
2013-07-12 08:05:00,69.0,34.5,28.42,North,360,5.0,12.0,28,0.00,,,0.00,Weather View 32 v70,2013-07-12 15:05:00,
2013-07-12 08:10:00,69.0,35.3,28.42,NNE,22,5.0,12.0,29,0.00,,,0.00,Weather View 32 v70,2013-07-12 15:10:00,
2013-07-12 08:15:00,68.0,34.5,28.42,North,360,5.0,12.0,29,0.00,,,0.00,Weather View 32 v70,2013-07-12 15:15:00,
2013-07-12 08:20:00,68.0,35.3,28.42,NE,45,6.0,12.0,30,0.00,,,0.00,Weather View 32 v70,2013-07-12 15:20:00,
2013-07-12 08:25:00,67.0,36.1,28.42,NE,45,4.0,12.0,32,0.00,,,0.00,Weather View 32 v70,2013-07-12 15:25:00,
2013-07-12 08:30:00,67.0,36.1,28.43,North,360,6.0,12.0,32,0.00,,,0.00,Weather View 32 v70,2013-07-12 15:30:00,
2013-07-12 08:35:00,67.0,35.3,28.43,NW,315,7.0,12.0,31,0.00,,,0.00,Weather View 32 v70,2013-07-12 15:35:00,
2013-07-12 08:40:00,67.0,36.1,28.43,NE,45,6.0,12.0,32,0.00,,,0.00,Weather View 32 v70,2013-07-12 15:40:00,
2013-07-12 08:45:00,67.0,36.9,28.43,NE,45,6.0,11.0,33,0.00,,,0.00,Weather View 32 v70,2013-07-12 15:45:00,
2013-07-12 08:50:00,67.0,37.6,28.43,ENE,67,4.0,11.0,34,0.00,,,0.00,Weather View 32 v70,2013-07-12 15:50:00,
2013-07-12 08:55:00,68.0,37.0,28.43,ENE,67,5.0,11.0,32,0.00,,,0.00,Weather View 32 v70,2013-07-12 15:55:00,
2013-07-12 09:00:00,69.0,37.0,28.42,NE,45,7.0,11.0,31,0.00,,,0.00,Weather View 32 v70,2013-07-12 16:00:00,
2013-07-12 09:05:00,69.0,37.0,28.42,North,360,5.0,11.0,31,0.00,,,0.00,Weather View 32 v70,2013-07-12 16:05:00,
2013-07-12 09:10:00,70.0,36.2,28.43,NE,45,2.0,11.0,29,0.00,,,0.00,Weather View 32 v70,2013-07-12 16:10:00,
2013-07-12 09:15:00,71.0,37.1,28.43,NE,45,7.0,11.0,29,0.00,,,0.00,Weather View 32 v70,2013-07-12 16:15:00,
2013-07-12 09:20:00,72.0,37.0,28.42,NE,45,11.0,12.0,28,0.00,,,0.00,Weather View 32 v70,2013-07-12 16:20:00,
2013-07-12 09:25:00,71.0,35.3,28.42,NNE,22,6.0,13.0,27,0.00,,,0.00,Weather View 32 v70,2013-07-12 16:25:00,
2013-07-12 09:30:00,71.0,36.2,28.43,NE,45,6.0,14.0,28,0.00,,,0.00,Weather View 32 v70,2013-07-12 16:30:00,
2013-07-12 09:35:00,70.0,36.2,28.43,North,360,11.0,14.0,29,0.00,,,0.00,Weather View 32 v70,2013-07-12 16:35:00,
2013-07-12 09:40:00,70.0,36.2,28.43,North,360,9.0,14.0,29,0.00,,,0.00,Weather View 32 v70,2013-07-12 16:40:00,
2013-07-12 09:45:00,70.0,36.2,28.43,North,360,5.0,14.0,29,0.00,,,0.00,Weather View 32 v70,2013-07-12 16:45:00,
2013-07-12 09:50:00,71.0,36.2,28.43,NW,315,6.0,14.0,28,0.00,,,0.00,Weather View 32 v70,2013-07-12 16:50:00,
2013-07-12 09:55:00,72.0,35.2,28.43,NE,45,7.0,14.0,26,0.00,,,0.00,Weather View 32 v70,2013-07-12 16:55:00,
2013-07-12 10:00:00,71.0,35.3,28.43,NE,45,2.0,14.0,27,0.00,,,0.00,Weather View 32 v70,2013-07-12 17:00:00,
2013-07-12 10:05:00,70.0,34.4,28.43,North,360,3.0,14.0,27,0.00,,,0.00,Weather View 32 v70,2013-07-12 17:05:00,
2013-07-12 10:10:00,71.0,35.3,28.42,NNW,337,4.0,14.0,27,0.00,,,0.00,Weather View 32 v70,2013-07-12 17:10:00,
2013-07-12 10:15:00,72.0,35.2,28.42,NE,45,4.0,14.0,26,0.00,,,0.00,Weather View 32 v70,2013-07-12 17:15:00,
2013-07-12 10:20:00,73.0,35.0,28.42,ENE,67,4.0,14.0,25,0.00,,,0.00,Weather View 32 v70,2013-07-12 17:20:00,
2013-07-12 10:25:00,73.0,35.0,28.42,East,90,2.0,14.0,25,0.00,,,0.00,Weather View 32 v70,2013-07-12 17:25:00,
2013-07-12 10:30:00,73.0,35.0,28.42,North,360,2.0,13.0,25,0.00,,,0.00,Weather View 32 v70,2013-07-12 17:30:00,
2013-07-12 10:35:00,74.0,35.9,28.42,SE,135,4.0,13.0,25,0.00,,,0.00,Weather View 32 v70,2013-07-12 17:35:00,
2013-07-12 10:41:00,74.0,36.8,28.42,East,90,5.0,12.0,26,0.00,,,0.00,Weather View 32 v70,2013-07-12 17:41:00,
2013-07-12 10:46:00,74.0,36.8,28.42,SE,135,5.0,9.0,26,0.00,,,0.00,Weather View 32 v70,2013-07-12 17:46:00,
2013-07-12 10:51:00,73.0,36.0,28.42,ESE,112,4.0,9.0,26,0.00,,,0.00,Weather View 32 v70,2013-07-12 17:51:00,
2013-07-12 10:56:00,73.0,35.0,28.42,ENE,67,5.0,9.0,25,0.00,,,0.00,Weather View 32 v70,2013-07-12 17:56:00,
2013-07-12 11:01:00,73.0,36.0,28.42,SE,135,3.0,9.0,26,0.00,,,0.00,Weather View 32 v70,2013-07-12 18:01:00,
2013-07-12 11:07:00,74.0,35.9,28.42,NE,45,4.0,9.0,25,0.00,,,0.00,Weather View 32 v70,2013-07-12 18:07:00,
2013-07-12 11:12:00,75.0,36.7,28.42,SSW,202,6.0,9.0,25,0.00,,,0.00,Weather View 32 v70,2013-07-12 18:12:00,
2013-07-12 11:17:00,75.0,36.7,28.41,East,90,0.0,9.0,25,0.00,,,0.00,Weather View 32 v70,2013-07-12 18:17:00,
2013-07-12 11:22:00,74.0,35.9,28.41,East,90,3.0,9.0,25,0.00,,,0.00,Weather View 32 v70,2013-07-12 18:22:00,
2013-07-12 11:27:00,74.0,35.9,28.41,ENE,67,6.0,9.0,25,0.00,,,0.00,Weather View 32 v70,2013-07-12 18:27:00,
2013-07-12 11:32:00,74.0,35.9,28.41,NE,45,6.0,9.0,25,0.00,,,0.00,Weather View 32 v70,2013-07-12 18:32:00,
2013-07-12 11:37:00,74.0,35.9,28.41,North,360,7.0,10.0,25,0.00,,,0.00,Weather View 32 v70,2013-07-12 18:37:00,
2013-07-12 11:42:00,74.0,35.9,28.41,ENE,67,6.0,10.0,25,0.00,,,0.00,Weather View 32 v70,2013-07-12 18:42:00,
2013-07-12 11:48:00,75.0,36.7,28.41,North,360,5.0,10.0,25,0.00,,,0.00,Weather View 32 v70,2013-07-12 18:48:00,
2013-07-12 11:53:00,75.0,35.7,28.41,West,270,5.0,10.0,24,0.00,,,0.00,Weather View 32 v70,2013-07-12 18:53:00,
2013-07-12 11:58:00,75.0,36.7,28.41,WNW,292,5.0,10.0,25,0.00,,,0.00,Weather View 32 v70,2013-07-12 18:58:00,
2013-07-12 12:03:00,76.0,36.5,28.41,SSW,202,3.0,10.0,24,0.00,,,0.00,Weather View 32 v70,2013-07-12 19:03:00,
2013-07-12 12:09:00,75.0,35.7,28.41,SW,225,7.0,10.0,24,0.00,,,0.00,Weather View 32 v70,2013-07-12 19:09:00,
2013-07-12 12:14:00,76.0,35.4,28.41,SW,225,7.0,10.0,23,0.00,,,0.00,Weather View 32 v70,2013-07-12 19:14:00,
2013-07-12 12:19:00,76.0,34.3,28.41,South,180,3.0,10.0,22,0.00,,,0.00,Weather View 32 v70,2013-07-12 19:19:00,
2013-07-12 12:24:00,77.0,35.1,28.41,WNW,292,8.0,10.0,22,0.00,,,0.00,Weather View 32 v70,2013-07-12 19:24:00,
2013-07-12 12:29:00,75.0,32.3,28.42,West,270,6.0,12.0,21,0.00,,,0.00,Weather View 32 v70,2013-07-12 19:29:00,
2013-07-12 12:34:00,75.0,33.5,28.42,West,270,6.0,12.0,22,0.00,,,0.00,Weather View 32 v70,2013-07-12 19:34:00,
2013-07-12 12:39:00,75.0,34.6,28.42,SW,225,6.0,12.0,23,0.00,,,0.00,Weather View 32 v70,2013-07-12 19:39:00,
2013-07-12 12:44:00,75.0,35.7,28.42,West,270,7.0,12.0,24,0.00,,,0.00,Weather View 32 v70,2013-07-12 19:44:00,
2013-07-12 12:49:00,75.0,35.7,28.42,West,270,6.0,12.0,24,0.00,,,0.00,Weather View 32 v70,2013-07-12 19:49:00,
2013-07-12 12:55:00,75.0,34.6,28.42,SW,225,5.0,12.0,23,0.00,,,0.00,Weather View 32 v70,2013-07-12 19:55:00,
2013-07-12 13:00:00,75.0,35.7,28.42,SW,225,6.0,12.0,24,0.00,,,0.00,Weather View 32 v70,2013-07-12 20:00:00,
2013-07-12 13:05:00,74.0,34.8,28.42,WSW,247,0.0,12.0,24,0.00,,,0.00,Weather View 32 v70,2013-07-12 20:05:00,
2013-07-12 13:10:00,74.0,35.9,28.42,SW,225,7.0,12.0,25,0.00,,,0.00,Weather View 32 v70,2013-07-12 20:10:00,
2013-07-12 13:16:00,74.0,35.9,28.42,SW,225,6.0,12.0,25,0.00,,,0.00,Weather View 32 v70,2013-07-12 20:16:00,
2013-07-12 13:21:00,74.0,35.9,28.42,SW,225,4.0,12.0,25,0.00,,,0.00,Weather View 32 v70,2013-07-12 20:21:00,
2013-07-12 13:26:00,75.0,35.7,28.41,SE,135,4.0,12.0,24,0.00,,,0.00,Weather View 32 v70,2013-07-12 20:26:00,
2013-07-12 13:32:00,75.0,35.7,28.41,SW,225,1.0,12.0,24,0.00,,,0.00,Weather View 32 v70,2013-07-12 20:32:00,
2013-07-12 13:37:00,76.0,36.5,28.41,SW,225,9.0,12.0,24,0.00,,,0.00,Weather View 32 v70,2013-07-12 20:37:00,
2013-07-12 13:42:00,75.0,36.7,28.41,SW,225,4.0,12.0,25,0.00,,,0.00,Weather View 32 v70,2013-07-12 20:42:00,
2013-07-12 13:47:00,75.0,34.6,28.41,West,270,6.0,12.0,23,0.00,,,0.00,Weather View 32 v70,2013-07-12 20:47:00,
2013-07-12 13:52:00,75.0,34.6,28.41,NW,315,7.0,12.0,23,0.00,,,0.00,Weather View 32 v70,2013-07-12 20:52:00,
2013-07-12 13:57:00,74.0,33.8,28.42,NW,315,7.0,12.0,23,0.00,,,0.00,Weather View 32 v70,2013-07-12 20:57:00,
2013-07-12 14:02:00,75.0,33.5,28.42,NE,45,0.0,12.0,22,0.00,,,0.00,Weather View 32 v70,2013-07-12 21:02:00,
2013-07-12 14:08:00,76.0,34.3,28.41,WSW,247,3.0,12.0,22,0.00,,,0.00,Weather View 32 v70,2013-07-12 21:08:00,
2013-07-12 14:13:00,76.0,35.4,28.41,SW,225,6.0,11.0,23,0.00,,,0.00,Weather View 32 v70,2013-07-12 21:13:00,
2013-07-12 14:19:00,76.0,34.3,28.41,SE,135,3.0,11.0,22,0.00,,,0.00,Weather View 32 v70,2013-07-12 21:19:00,
2013-07-12 14:24:00,77.0,34.0,28.41,West,270,6.0,11.0,21,0.00,,,0.00,Weather View 32 v70,2013-07-12 21:24:00,
2013-07-12 14:30:00,78.0,36.0,28.40,South,180,0.0,11.0,22,0.00,,,0.00,Weather View 32 v70,2013-07-12 21:30:00,
2013-07-12 14:35:00,76.0,35.4,28.40,SW,225,8.0,12.0,23,0.00,,,0.00,Weather View 32 v70,2013-07-12 21:35:00,
2013-07-12 14:40:00,77.0,35.1,28.41,South,180,6.0,12.0,22,0.00,,,0.00,Weather View 32 v70,2013-07-12 21:40:00,
2013-07-12 14:45:00,78.0,33.6,28.41,SW,225,3.0,12.0,20,0.00,,,0.00,Weather View 32 v70,2013-07-12 21:45:00,
2013-07-12 14:50:00,78.0,33.6,28.40,South,180,3.0,12.0,20,0.00,,,0.00,Weather View 32 v70,2013-07-12 21:50:00,
2013-07-12 14:55:00,78.0,34.8,28.40,SW,225,8.0,12.0,21,0.00,,,0.00,Weather View 32 v70,2013-07-12 21:55:00,
2013-07-12 15:00:00,77.0,35.1,28.40,West,270,6.0,12.0,22,0.00,,,0.00,Weather View 32 v70,2013-07-12 22:00:00,
2013-07-12 15:05:00,76.0,33.1,28.40,West,270,7.0,12.0,21,0.00,,,0.00,Weather View 32 v70,2013-07-12 22:05:00,
2013-07-12 15:11:00,77.0,35.1,28.40,NW,315,6.0,12.0,22,0.00,,,0.00,Weather View 32 v70,2013-07-12 22:11:00,
2013-07-12 15:16:00,77.0,35.1,28.40,West,270,4.0,12.0,22,0.00,,,0.00,Weather View 32 v70,2013-07-12 22:16:00,
2013-07-12 15:21:00,76.0,34.3,28.40,West,270,8.0,12.0,22,0.00,,,0.00,Weather View 32 v70,2013-07-12 22:21:00,
2013-07-12 15:26:00,76.0,31.9,28.40,NW,315,7.0,12.0,20,0.00,,,0.00,Weather View 32 v70,2013-07-12 22:26:00,
2013-07-12 15:32:00,76.0,30.7,28.40,NW,315,7.0,12.0,19,0.00,,,0.00,Weather View 32 v70,2013-07-12 22:32:00,
2013-07-12 15:37:00,77.0,31.5,28.39,West,270,2.0,12.0,19,0.00,,,0.00,Weather View 32 v70,2013-07-12 22:37:00,
2013-07-12 15:42:00,76.0,29.3,28.39,West,270,5.0,12.0,18,0.00,,,0.00,Weather View 32 v70,2013-07-12 22:42:00,
2013-07-12 15:47:00,76.0,31.9,28.39,North,360,4.0,12.0,20,0.00,,,0.00,Weather View 32 v70,2013-07-12 22:47:00,
2013-07-12 15:52:00,77.0,30.1,28.39,North,360,6.0,12.0,18,0.00,,,0.00,Weather View 32 v70,2013-07-12 22:52:00,
2013-07-12 15:57:00,77.0,31.5,28.39,WNW,292,6.0,12.0,19,0.00,,,0.00,Weather View 32 v70,2013-07-12 22:57:00,
2013-07-12 16:03:00,77.0,32.8,28.39,NNW,337,6.0,12.0,20,0.00,,,0.00,Weather View 32 v70,2013-07-12 23:03:00,
2013-07-12 16:08:00,78.0,33.6,28.38,North,360,7.0,15.0,20,0.00,,,0.00,Weather View 32 v70,2013-07-12 23:08:00,
2013-07-12 16:13:00,78.0,33.6,28.38,North,360,6.0,15.0,20,0.00,,,0.00,Weather View 32 v70,2013-07-12 23:13:00,
2013-07-12 16:18:00,77.0,32.8,28.38,NW,315,10.0,15.0,20,0.00,,,0.00,Weather View 32 v70,2013-07-12 23:18:00,
2013-07-12 16:23:00,77.0,32.8,28.38,NW,315,6.0,15.0,20,0.00,,,0.00,Weather View 32 v70,2013-07-12 23:23:00,
2013-07-12 16:29:00,77.0,34.0,28.39,WNW,292,3.0,15.0,21,0.00,,,0.00,Weather View 32 v70,2013-07-12 23:29:00,
2013-07-12 16:34:00,77.0,32.8,28.39,West,270,13.0,15.0,20,0.00,,,0.00,Weather View 32 v70,2013-07-12 23:34:00,
2013-07-12 16:39:00,78.0,33.6,28.38,WNW,292,6.0,15.0,20,0.00,,,0.00,Weather View 32 v70,2013-07-12 23:39:00,
2013-07-12 16:44:00,78.0,33.6,28.38,NW,315,9.0,15.0,20,0.00,,,0.00,Weather View 32 v70,2013-07-12 23:44:00,
2013-07-12 16:50:00,78.0,33.6,28.38,NW,315,7.0,15.0,20,0.00,,,0.00,Weather View 32 v70,2013-07-12 23:50:00,
2013-07-12 16:55:00,78.0,33.6,28.38,NW,315,12.0,15.0,20,0.00,,,0.00,Weather View 32 v70,2013-07-12 23:55:00,
2013-07-12 17:01:00,77.0,34.0,28.38,NW,315,3.0,16.0,21,0.00,,,0.00,Weather View 32 v70,2013-07-13 00:01:00,
2013-07-12 17:06:00,77.0,34.0,28.38,NW,315,11.0,16.0,21,0.00,,,0.00,Weather View 32 v70,2013-07-13 00:06:00,
2013-07-12 17:11:00,76.0,33.1,28.38,North,360,7.0,16.0,21,0.00,,,0.00,Weather View 32 v70,2013-07-13 00:11:00,
2013-07-12 17:16:00,77.0,32.8,28.38,NW,315,6.0,16.0,20,0.00,,,0.00,Weather View 32 v70,2013-07-13 00:16:00,
2013-07-12 17:22:00,77.0,34.0,28.38,NW,315,10.0,16.0,21,0.00,,,0.00,Weather View 32 v70,2013-07-13 00:22:00,
2013-07-12 17:27:00,77.0,34.0,28.38,North,360,6.0,16.0,21,0.00,,,0.00,Weather View 32 v70,2013-07-13 00:27:00,
2013-07-12 17:32:00,77.0,35.1,28.38,North,360,5.0,16.0,22,0.00,,,0.00,Weather View 32 v70,2013-07-13 00:32:00,
2013-07-12 17:37:00,77.0,35.1,28.38,North,360,6.0,16.0,22,0.00,,,0.00,Weather View 32 v70,2013-07-13 00:37:00,
2013-07-12 17:43:00,79.0,35.6,28.38,North,360,11.0,16.0,21,0.00,,,0.00,Weather View 32 v70,2013-07-13 00:43:00,
2013-07-12 17:49:00,78.0,33.6,28.36,NNW,337,8.0,19.0,20,0.00,,,0.00,Weather View 32 v70,2013-07-13 00:49:00,
2013-07-12 17:54:00,79.0,34.4,28.36,NE,45,9.0,19.0,20,0.00,,,0.00,Weather View 32 v70,2013-07-13 00:54:00,
2013-07-12 17:59:00,78.0,33.6,28.37,NNW,337,4.0,19.0,20,0.00,,,0.00,Weather View 32 v70,2013-07-13 00:59:00,
2013-07-12 18:04:00,78.0,33.6,28.37,North,360,9.0,19.0,20,0.00,,,0.00,Weather View 32 v70,2013-07-13 01:04:00,
2013-07-12 18:10:00,78.0,34.8,28.38,North,360,15.0,20.0,21,0.00,,,0.00,Weather View 32 v70,2013-07-13 01:10:00,
2013-07-12 18:15:00,77.0,35.1,28.38,NNW,337,7.0,20.0,22,0.00,,,0.00,Weather View 32 v70,2013-07-13 01:15:00,
2013-07-12 18:20:00,76.0,35.4,28.38,North,360,13.0,20.0,23,0.00,,,0.00,Weather View 32 v70,2013-07-13 01:20:00,
2013-07-12 18:25:00,75.0,35.7,28.38,North,360,10.0,20.0,24,0.00,,,0.00,Weather View 32 v70,2013-07-13 01:25:00,
2013-07-12 18:31:00,73.0,34.0,28.38,North,360,15.0,26.0,24,0.00,,,0.00,Weather View 32 v70,2013-07-13 01:31:00,
2013-07-12 18:36:00,73.0,35.0,28.38,North,360,15.0,26.0,25,0.00,,,0.00,Weather View 32 v70,2013-07-13 01:36:00,
2013-07-12 18:41:00,73.0,35.0,28.40,North,360,12.0,26.0,25,0.00,,,0.00,Weather View 32 v70,2013-07-13 01:41:00,
2013-07-12 18:46:00,73.0,35.0,28.40,North,360,15.0,26.0,25,0.00,,,0.00,Weather View 32 v70,2013-07-13 01:46:00,
2013-07-12 18:51:00,72.0,35.2,28.40,NE,45,6.0,26.0,26,0.00,,,0.00,Weather View 32 v70,2013-07-13 01:51:00,
2013-07-12 18:56:00,73.0,35.0,28.40,North,360,9.0,26.0,25,0.00,,,0.00,Weather View 32 v70,2013-07-13 01:56:00,
2013-07-12 19:02:00,74.0,35.9,28.40,North,360,17.0,26.0,25,0.00,,,0.00,Weather View 32 v70,2013-07-13 02:02:00,
2013-07-12 19:07:00,74.0,35.9,28.40,North,360,6.0,26.0,25,0.00,,,0.00,Weather View 32 v70,2013-07-13 02:07:00,
2013-07-12 19:12:00,74.0,35.9,28.40,NW,315,12.0,26.0,25,0.00,,,0.00,Weather View 32 v70,2013-07-13 02:12:00,
2013-07-12 19:17:00,74.0,35.9,28.40,North,360,6.0,26.0,25,0.00,,,0.00,Weather View 32 v70,2013-07-13 02:17:00,
2013-07-12 19:22:00,74.0,35.9,28.40,North,360,16.0,26.0,25,0.00,,,0.00,Weather View 32 v70,2013-07-13 02:22:00,
2013-07-12 19:27:00,74.0,35.9,28.40,North,360,16.0,26.0,25,0.00,,,0.00,Weather View 32 v70,2013-07-13 02:27:00,
2013-07-12 19:32:00,73.0,35.0,28.40,North,360,7.0,26.0,25,0.00,,,0.00,Weather View 32 v70,2013-07-13 02:32:00,
2013-07-12 19:37:00,73.0,35.0,28.41,NW,315,7.0,26.0,25,0.00,,,0.00,Weather View 32 v70,2013-07-13 02:37:00,
2013-07-12 19:43:00,73.0,35.0,28.41,NNW,337,12.0,22.0,25,0.00,,,0.00,Weather View 32 v70,2013-07-13 02:43:00,
2013-07-12 19:48:00,73.0,35.0,28.40,North,360,5.0,22.0,25,0.00,,,0.00,Weather View 32 v70,2013-07-13 02:48:00,
2013-07-12 19:53:00,72.0,34.2,28.40,NW,315,8.0,21.0,25,0.00,,,0.00,Weather View 32 v70,2013-07-13 02:53:00,
2013-07-12 19:58:00,72.0,35.2,28.41,North,360,5.0,21.0,26,0.00,,,0.00,Weather View 32 v70,2013-07-13 02:58:00,
2013-07-12 20:03:00,72.0,34.2,28.41,North,360,10.0,21.0,25,0.00,,,0.00,Weather View 32 v70,2013-07-13 03:03:00,
2013-07-12 20:08:00,72.0,34.2,28.41,NW,315,6.0,21.0,25,0.00,,,0.00,Weather View 32 v70,2013-07-13 03:08:00,
2013-07-12 20:14:00,72.0,34.2,28.41,North,360,10.0,21.0,25,0.00,,,0.00,Weather View 32 v70,2013-07-13 03:14:00,
2013-07-12 20:19:00,72.0,34.2,28.41,North,360,8.0,21.0,25,0.00,,,0.00,Weather View 32 v70,2013-07-13 03:19:00,
2013-07-12 20:25:00,72.0,34.2,28.41,North,360,6.0,21.0,25,0.00,,,0.00,Weather View 32 v70,2013-07-13 03:25:00,
2013-07-12 20:30:00,71.0,33.3,28.41,NNW,337,7.0,16.0,25,0.00,,,0.00,Weather View 32 v70,2013-07-13 03:30:00,
2013-07-12 20:35:00,71.0,34.3,28.41,North,360,4.0,16.0,26,0.00,,,0.00,Weather View 32 v70,2013-07-13 03:35:00,
2013-07-12 20:40:00,71.0,35.3,28.42,NW,315,6.0,16.0,27,0.00,,,0.00,Weather View 32 v70,2013-07-13 03:40:00,
2013-07-12 20:45:00,71.0,36.2,28.42,NW,315,7.0,14.0,28,0.00,,,0.00,Weather View 32 v70,2013-07-13 03:45:00,
2013-07-12 20:51:00,70.0,36.2,28.42,NW,315,3.0,13.0,29,0.00,,,0.00,Weather View 32 v70,2013-07-13 03:51:00,
2013-07-12 20:56:00,70.0,37.1,28.42,NW,315,3.0,13.0,30,0.00,,,0.00,Weather View 32 v70,2013-07-13 03:56:00,
2013-07-12 21:01:00,70.0,37.9,28.42,NW,315,3.0,12.0,31,0.00,,,0.00,Weather View 32 v70,2013-07-13 04:01:00,
2013-07-12 21:04:00,69.0,37.0,28.42,NW,315,6.0,12.0,31,0.00,,,0.00,Weather View 32 v70,2013-07-13 04:04:00,
2013-07-12 21:05:00,69.0,37.0,28.42,NW,315,6.0,12.0,31,0.00,,,0.00,Weather View 32 v70,2013-07-13 04:05:00,
2013-07-12 21:10:00,69.0,37.8,28.42,NW,315,3.0,11.0,32,0.00,,,0.00,Weather View 32 v70,2013-07-13 04:10:00,
2013-07-12 21:15:00,69.0,37.8,28.42,NW,315,6.0,11.0,32,0.00,,,0.00,Weather View 32 v70,2013-07-13 04:15:00,
2013-07-12 21:21:00,69.0,38.6,28.43,WNW,292,4.0,11.0,33,0.00,,,0.00,Weather View 32 v70,2013-07-13 04:21:00,
2013-07-12 21:26:00,68.0,37.8,28.43,NW,315,4.0,9.0,33,0.00,,,0.00,Weather View 32 v70,2013-07-13 04:26:00,
2013-07-12 21:31:00,68.0,38.5,28.44,WNW,292,6.0,9.0,34,0.00,,,0.00,Weather View 32 v70,2013-07-13 04:31:00,
2013-07-12 21:36:00,68.0,39.3,28.44,NNW,337,6.0,9.0,35,0.00,,,0.00,Weather View 32 v70,2013-07-13 04:36:00,
2013-07-12 21:41:00,67.0,38.4,28.44,NW,315,6.0,9.0,35,0.00,,,0.00,Weather View 32 v70,2013-07-13 04:41:00,
2013-07-12 21:46:00,67.0,39.1,28.44,NW,315,7.0,9.0,36,0.00,,,0.00,Weather View 32 v70,2013-07-13 04:46:00,
2013-07-12 21:51:00,67.0,40.5,28.45,NNW,337,6.0,9.0,38,0.00,,,0.00,Weather View 32 v70,2013-07-13 04:51:00,
2013-07-12 21:56:00,66.0,40.3,28.45,NW,315,6.0,9.0,39,0.00,,,0.00,Weather View 32 v70,2013-07-13 04:56:00,
2013-07-12 22:02:00,66.0,40.9,28.46,NW,315,3.0,9.0,40,0.00,,,0.00,Weather View 32 v70,2013-07-13 05:02:00,
2013-07-12 22:07:00,66.0,41.6,28.46,NW,315,2.0,9.0,41,0.00,,,0.00,Weather View 32 v70,2013-07-13 05:07:00,
2013-07-12 22:12:00,65.0,40.0,28.46,West,270,6.0,9.0,40,0.00,,,0.00,Weather View 32 v70,2013-07-13 05:12:00,
2013-07-12 22:17:00,66.0,39.6,28.46,NW,315,12.0,12.0,38,0.00,,,0.00,Weather View 32 v70,2013-07-13 05:17:00,
2013-07-12 22:23:00,65.0,38.7,28.46,West,270,9.0,14.0,38,0.00,,,0.00,Weather View 32 v70,2013-07-13 05:23:00,
2013-07-12 22:28:00,65.0,40.0,28.46,WNW,292,8.0,14.0,40,0.00,,,0.00,Weather View 32 v70,2013-07-13 05:28:00,
2013-07-12 22:33:00,65.0,40.7,28.46,NW,315,7.0,14.0,41,0.00,,,0.00,Weather View 32 v70,2013-07-13 05:33:00,
2013-07-12 22:38:00,64.0,40.4,28.47,NW,315,4.0,14.0,42,0.00,,,0.00,Weather View 32 v70,2013-07-13 05:38:00,
2013-07-12 22:43:00,64.0,40.4,28.47,NW,315,5.0,14.0,42,0.00,,,0.00,Weather View 32 v70,2013-07-13 05:43:00,
2013-07-12 22:49:00,63.0,40.1,28.48,NW,315,3.0,14.0,43,0.00,,,0.00,Weather View 32 v70,2013-07-13 05:49:00,
2013-07-12 22:54:00,63.0,40.7,28.48,NW,315,2.0,14.0,44,0.00,,,0.00,Weather View 32 v70,2013-07-13 05:54:00,
2013-07-12 22:59:00,63.0,40.1,28.48,NW,315,7.0,14.0,43,0.00,,,0.00,Weather View 32 v70,2013-07-13 05:59:00,
2013-07-12 23:04:00,63.0,40.7,28.48,NW,315,3.0,14.0,44,0.00,,,0.00,Weather View 32 v70,2013-07-13 06:04:00,
2013-07-12 23:10:00,63.0,40.1,28.48,NNW,337,6.0,14.0,43,0.00,,,0.00,Weather View 32 v70,2013-07-13 06:10:00,
2013-07-12 23:15:00,62.0,39.8,28.48,North,360,4.0,14.0,44,0.00,,,0.00,Weather View 32 v70,2013-07-13 06:15:00,
2013-07-12 23:20:00,62.0,39.8,28.48,WNW,292,7.0,14.0,44,0.00,,,0.00,Weather View 32 v70,2013-07-13 06:20:00,
2013-07-12 23:25:00,62.0,40.4,28.48,NW,315,7.0,12.0,45,0.00,,,0.00,Weather View 32 v70,2013-07-13 06:25:00,
2013-07-12 23:30:00,62.0,40.4,28.48,NW,315,5.0,9.0,45,0.00,,,0.00,Weather View 32 v70,2013-07-13 06:30:00,
2013-07-12 23:36:00,61.0,40.0,28.48,West,270,2.0,9.0,46,0.00,,,0.00,Weather View 32 v70,2013-07-13 06:36:00,
2013-07-12 23:41:00,61.0,40.6,28.48,NW,315,1.0,9.0,47,0.00,,,0.00,Weather View 32 v70,2013-07-13 06:41:00,
2013-07-12 23:46:00,61.0,41.1,28.48,NW,315,5.0,9.0,48,0.00,,,0.00,Weather View 32 v70,2013-07-13 06:46:00,
2013-07-12 23:51:00,61.0,41.1,28.49,NW,315,1.0,9.0,48,0.00,,,0.00,Weather View 32 v70,2013-07-13 06:51:00,
2013-07-12 23:56:00,61.0,41.7,28.49,North,360,3.0,9.0,49,0.00,,,0.00,Weather View 32 v70,2013-07-13 06:56:00,